Time;durP1;ratioP1;P1;durP2;ratioP2;P2;SDS_P1;SDS_P2;PMS_P1;PMS_P2;Temp;Humidity;BMP_temperature;BMP_pressure;BME280_temperature;BME280_humidity;BME280_pressure;Samples;Min_cycle;Max_cycle;Signal;HPM_P1;HPM_P2
2021/07/09 00:02:12;;;;;;;12.15;7.55;;;21.10;84.50;;;;;;5014073;28;20104;-66
2021/07/09 00:04:38;;;;;;;9.43;7.47;;;20.90;84.60;;;;;;5013838;28;20059;-65
2021/07/09 00:07:04;;;;;;;11.65;7.90;;;21.00;84.60;;;;;;5014585;28;20026;-66
2021/07/09 00:09:30;;;;;;;12.80;7.75;;;21.00;84.40;;;;;;5014006;28;20049;-66
2021/07/09 00:11:56;;;;;;;12.93;8.55;;;20.90;84.80;;;;;;5013403;28;20116;-66
2021/07/09 00:14:28;;;;;;;12.50;8.45;;;21.00;85.00;;;;;;5014355;28;20032;-66
2021/07/09 00:16:54;;;;;;;14.68;8.07;;;20.90;85.00;;;;;;5014243;28;20029;-67
2021/07/09 00:19:20;;;;;;;11.68;8.38;;;20.90;85.10;;;;;;5014519;28;20022;-66
2021/07/09 00:21:46;;;;;;;12.02;8.27;;;20.80;85.30;;;;;;5014385;28;20022;-67
2021/07/09 00:24:12;;;;;;;11.65;8.77;;;20.90;84.90;;;;;;5013894;28;20026;-65
2021/07/09 00:26:38;;;;;;;12.15;8.77;;;20.90;85.10;;;;;;5014429;28;20475;-67
2021/07/09 00:29:04;;;;;;;12.23;8.43;;;20.80;85.40;;;;;;5013118;28;20037;-65
2021/07/09 00:31:32;;;;;;;15.55;8.82;;;20.80;85.60;;;;;;5013806;28;20616;-66
2021/07/09 00:33:59;;;;;;;12.57;8.77;;;20.80;85.70;;;;;;5013168;28;20021;-65
2021/07/09 00:36:25;;;;;;;14.65;8.80;;;20.80;85.40;;;;;;5014261;28;20017;-65
2021/07/09 00:38:51;;;;;;;13.43;8.80;;;20.80;85.10;;;;;;5013327;28;20487;-66
2021/07/09 00:41:17;;;;;;;15.15;8.77;;;20.80;85.60;;;;;;5013409;28;20105;-67
2021/07/09 00:43:43;;;;;;;11.63;8.65;;;20.80;85.00;;;;;;5014133;28;20048;-65
2021/07/09 00:46:09;;;;;;;13.48;8.68;;;20.90;84.50;;;;;;5014249;28;20045;-66
2021/07/09 00:48:35;;;;;;;12.98;8.95;;;20.80;84.80;;;;;;5012541;28;20121;-67
2021/07/09 00:51:04;;;;;;;14.20;9.27;;;20.80;84.60;;;;;;5013621;28;20041;-67
2021/07/09 00:53:30;;;;;;;12.40;8.45;;;21.00;84.10;;;;;;5012776;28;20026;-66
2021/07/09 00:55:56;;;;;;;13.25;8.77;;;21.00;83.60;;;;;;5013865;28;20034;-66
2021/07/09 00:58:21;;;;;;;12.35;9.50;;;21.00;83.30;;;;;;5012831;28;20025;-65
2021/07/09 01:00:47;;;;;;;15.57;8.88;;;21.00;83.80;;;;;;5012832;28;20029;-65
2021/07/09 01:03:13;;;;;;;14.30;8.85;;;20.90;84.80;;;;;;5012716;28;20025;-65
2021/07/09 01:05:39;;;;;;;13.00;8.90;;;21.00;83.60;;;;;;5013658;28;20038;-65
2021/07/09 01:08:06;;;;;;;13.05;9.15;;;20.70;85.50;;;;;;5013212;28;20101;-65
2021/07/09 01:10:32;;;;;;;15.52;9.68;;;20.90;84.10;;;;;;5013167;28;20042;-66
2021/07/09 01:12:58;;;;;;;16.48;9.23;;;20.90;83.70;;;;;;5013366;28;20029;-65
2021/07/09 01:15:25;;;;;;;12.98;9.88;;;20.90;83.80;;;;;;5013213;28;20030;-65
2021/07/09 01:17:51;;;;;;;14.80;9.73;;;20.80;83.80;;;;;;5011998;28;20439;-65
2021/07/09 01:20:19;;;;;;;15.32;9.90;;;20.70;84.40;;;;;;5013394;28;20030;-65
2021/07/09 01:22:47;;;;;;;14.23;10.30;;;20.70;84.20;;;;;;5013518;28;20061;-65
2021/07/09 01:25:19;;;;;;;13.45;9.82;;;20.70;84.40;;;;;;5012944;28;20033;-66
2021/07/09 01:27:47;;;;;;;15.95;9.68;;;20.80;84.30;;;;;;5007398;28;20034;-66
2021/07/09 01:30:16;;;;;;;14.68;9.35;;;20.70;84.40;;;;;;5012970;28;20030;-66
2021/07/09 01:32:42;;;;;;;13.65;10.18;;;20.60;85.40;;;;;;5012644;28;20083;-67
2021/07/09 01:35:08;;;;;;;12.15;9.23;;;20.60;85.00;;;;;;5012579;28;20500;-67
2021/07/09 01:37:34;;;;;;;14.68;9.15;;;20.60;84.50;;;;;;5012418;28;20148;-67
2021/07/09 01:40:00;;;;;;;12.52;9.30;;;20.70;83.90;;;;;;5012709;28;20487;-68
2021/07/09 01:42:26;;;;;;;15.35;10.50;;;20.70;83.90;;;;;;5012819;28;20076;-66
2021/07/09 01:44:51;;;;;;;16.42;10.07;;;20.70;83.60;;;;;;5011778;28;20030;-66
2021/07/09 01:47:17;;;;;;;13.15;9.13;;;20.70;83.90;;;;;;5012495;28;20040;-66
2021/07/09 01:49:50;;;;;;;16.88;9.85;;;20.80;83.00;;;;;;5011216;28;20129;-66
2021/07/09 01:52:15;;;;;;;13.48;10.38;;;20.90;83.30;;;;;;5012951;28;20022;-66
2021/07/09 01:54:41;;;;;;;17.50;10.55;;;20.80;82.90;;;;;;5012365;28;20072;-66
2021/07/09 01:57:07;;;;;;;14.43;9.52;;;20.70;83.60;;;;;;5012021;28;20088;-66
2021/07/09 01:59:32;;;;;;;14.90;10.25;;;20.30;86.30;;;;;;5010877;28;20442;-67
2021/07/09 02:01:58;;;;;;;15.00;10.02;;;20.50;84.60;;;;;;5012511;28;20056;-66
2021/07/09 02:04:23;;;;;;;15.30;10.88;;;20.50;84.40;;;;;;5012581;28;20061;-66
2021/07/09 02:06:49;;;;;;;15.00;8.95;;;19.90;87.30;;;;;;5012158;28;20034;-66
2021/07/09 02:09:14;;;;;;;14.02;9.90;;;20.20;86.60;;;;;;5013914;28;20069;-66
2021/07/09 02:11:40;;;;;;;14.75;10.93;;;19.90;87.90;;;;;;5012308;28;20048;-66
2021/07/09 02:14:06;;;;;;;15.70;9.70;;;19.90;87.80;;;;;;5010680;28;20026;-65
2021/07/09 02:16:31;;;;;;;15.60;9.38;;;20.40;85.00;;;;;;5012041;28;20018;-66
2021/07/09 02:18:57;;;;;;;15.40;9.68;;;20.70;82.70;;;;;;5012266;28;20030;-66
2021/07/09 02:21:22;;;;;;;15.52;9.80;;;20.80;81.80;;;;;;5012035;28;20033;-66
2021/07/09 02:23:48;;;;;;;15.23;10.45;;;20.70;81.70;;;;;;5008199;28;20614;-66
2021/07/09 02:26:13;;;;;;;13.40;9.32;;;20.70;81.70;;;;;;5004526;28;20400;-67
2021/07/09 02:28:39;;;;;;;18.83;9.73;;;20.50;82.60;;;;;;5011419;28;20046;-66
2021/07/09 02:31:04;;;;;;;13.60;9.70;;;20.70;81.70;;;;;;5011952;28;20108;-66
2021/07/09 02:33:29;;;;;;;14.25;9.55;;;20.70;81.50;;;;;;5011174;28;20029;-65
2021/07/09 02:35:55;;;;;;;14.27;9.57;;;20.70;81.10;;;;;;5012115;28;20038;-66
2021/07/09 02:38:21;;;;;;;13.63;9.75;;;20.80;80.80;;;;;;5011527;28;20115;-65
2021/07/09 02:40:46;;;;;;;20.13;10.30;;;20.70;80.70;;;;;;5011951;28;20030;-66
2021/07/09 02:43:12;;;;;;;15.02;10.30;;;20.70;80.90;;;;;;5012041;28;20021;-66
2021/07/09 02:45:37;;;;;;;14.00;9.38;;;20.60;81.40;;;;;;5010639;28;20121;-66
2021/07/09 02:48:03;;;;;;;13.05;8.95;;;19.80;85.40;;;;;;5011575;28;20641;-66
2021/07/09 02:50:29;;;;;;;15.23;9.30;;;20.30;83.30;;;;;;5012093;28;20041;-65
2021/07/09 02:52:54;;;;;;;16.25;9.82;;;20.30;82.80;;;;;;5011389;28;20030;-66
2021/07/09 02:55:22;;;;;;;13.63;9.55;;;20.50;82.00;;;;;;5011659;28;20503;-66
2021/07/09 02:57:48;;;;;;;16.23;9.50;;;20.40;82.30;;;;;;5009651;28;20510;-66
2021/07/09 03:00:16;;;;;;;13.90;9.07;;;20.40;82.30;;;;;;5011675;28;20038;-66
2021/07/09 03:02:41;;;;;;;17.77;11.20;;;20.50;81.90;;;;;;5011469;28;20034;-66
2021/07/09 03:05:09;;;;;;;14.00;10.45;;;20.40;82.10;;;;;;5011278;28;20475;-65
2021/07/09 03:07:35;;;;;;;16.75;8.52;;;20.30;82.50;;;;;;5011247;28;20030;-65
2021/07/09 03:10:01;;;;;;;13.80;8.65;;;20.10;83.20;;;;;;5011118;28;20034;-66
2021/07/09 03:12:29;;;;;;;17.30;10.93;;;20.00;84.00;;;;;;5015526;28;20030;-66
2021/07/09 03:14:55;;;;;;;16.05;10.60;;;20.00;84.00;;;;;;5015231;28;20028;-66
2021/07/09 03:17:20;;;;;;;13.50;9.25;;;19.90;84.00;;;;;;5015006;28;20404;-65
2021/07/09 03:19:46;;;;;;;17.55;10.43;;;20.10;83.50;;;;;;5015895;28;20029;-66
2021/07/09 03:22:11;;;;;;;13.70;9.00;;;20.10;82.80;;;;;;5014928;28;20018;-66
2021/07/09 03:24:37;;;;;;;15.18;8.93;;;20.30;81.80;;;;;;5015595;28;20394;-66
2021/07/09 03:27:04;;;;;;;16.27;10.20;;;20.40;81.40;;;;;;5015392;28;20443;-66
2021/07/09 03:29:29;;;;;;;12.77;9.02;;;20.30;81.50;;;;;;5015532;28;20025;-66
2021/07/09 03:31:55;;;;;;;13.27;9.32;;;20.20;81.90;;;;;;5014669;28;20113;-67
2021/07/09 03:34:21;;;;;;;15.05;9.13;;;20.00;82.80;;;;;;5015114;28;20021;-65
2021/07/09 03:36:48;;;;;;;13.18;8.35;;;20.30;81.30;;;;;;5015237;28;20104;-65
2021/07/09 03:39:14;;;;;;;15.25;9.27;;;20.40;81.00;;;;;;5015020;28;20467;-66
2021/07/09 03:41:41;;;;;;;12.90;8.75;;;20.30;80.70;;;;;;5014489;28;20084;-65
2021/07/09 03:44:07;;;;;;;14.75;9.27;;;20.10;81.80;;;;;;5015230;28;20061;-66
2021/07/09 03:46:34;;;;;;;14.23;8.73;;;19.80;83.30;;;;;;5015193;28;20132;-65
2021/07/09 03:49:00;;;;;;;14.40;8.57;;;20.10;82.00;;;;;;5015154;28;20040;-65
2021/07/09 03:51:25;;;;;;;13.75;8.68;;;20.10;81.80;;;;;;5014944;28;20097;-67
2021/07/09 03:53:54;;;;;;;14.57;9.15;;;20.40;80.30;;;;;;5014610;28;20030;-66
2021/07/09 03:56:21;;;;;;;14.50;8.38;;;20.40;80.50;;;;;;5015081;28;20068;-66
2021/07/09 03:58:46;;;;;;;13.27;8.60;;;20.40;80.10;;;;;;5014687;28;20022;-66
2021/07/09 04:01:12;;;;;;;14.93;9.38;;;20.40;80.10;;;;;;5014643;28;20080;-67
2021/07/09 04:03:37;;;;;;;14.80;8.07;;;20.50;80.00;;;;;;5014836;28;20037;-65
2021/07/09 04:06:03;;;;;;;13.07;9.10;;;20.40;80.10;;;;;;5014548;28;20033;-66
2021/07/09 04:08:28;;;;;;;15.65;9.80;;;20.30;80.90;;;;;;5014692;28;20056;-66
2021/07/09 04:10:54;;;;;;;12.43;8.25;;;20.20;81.00;;;;;;5014224;28;20038;-65
2021/07/09 04:13:19;;;;;;;12.55;8.43;;;20.20;81.30;;;;;;5012984;28;20041;-65
2021/07/09 04:15:45;;;;;;;11.88;7.95;;;20.40;79.70;;;;;;5014205;28;20038;-65
2021/07/09 04:18:10;;;;;;;12.45;7.85;;;20.50;79.50;;;;;;5014121;28;20387;-66
2021/07/09 04:20:36;;;;;;;15.07;8.57;;;20.40;79.80;;;;;;5014782;28;20018;-65
2021/07/09 04:23:02;;;;;;;11.15;8.50;;;20.50;79.50;;;;;;5012262;28;20724;-65
2021/07/09 04:25:28;;;;;;;12.98;8.75;;;20.50;79.60;;;;;;5013711;28;20116;-65
2021/07/09 04:27:53;;;;;;;14.02;8.27;;;20.30;79.90;;;;;;5028745;28;20014;-65
2021/07/09 04:30:19;;;;;;;12.55;8.43;;;20.30;80.50;;;;;;5014236;28;20025;-64
2021/07/09 04:32:45;;;;;;;13.98;8.15;;;20.20;80.90;;;;;;5013733;28;20137;-65
2021/07/09 04:35:11;;;;;;;14.63;8.15;;;20.20;80.80;;;;;;5013189;28;20661;-65
2021/07/09 04:37:36;;;;;;;13.55;8.65;;;20.10;81.40;;;;;;5014119;28;20036;-65
2021/07/09 04:40:04;;;;;;;10.93;8.35;;;20.20;80.80;;;;;;5012869;28;20368;-63
2021/07/09 04:42:29;;;;;;;14.85;8.02;;;20.20;80.70;;;;;;5013415;28;20075;-66
2021/07/09 04:44:55;;;;;;;13.52;8.40;;;20.20;80.60;;;;;;5008651;28;20022;-66
2021/07/09 04:47:21;;;;;;;13.65;7.88;;;20.20;80.80;;;;;;5002293;28;20021;-67
2021/07/09 04:49:46;;;;;;;14.52;8.48;;;20.30;80.50;;;;;;5014165;28;20033;-65
2021/07/09 04:52:12;;;;;;;12.85;8.68;;;20.30;80.30;;;;;;5013719;28;20022;-65
2021/07/09 04:54:37;;;;;;;11.75;7.90;;;20.10;80.80;;;;;;5013830;28;20038;-65
2021/07/09 04:57:03;;;;;;;11.00;7.05;;;20.00;82.10;;;;;;5013688;28;20391;-66
2021/07/09 04:59:29;;;;;;;11.98;7.68;;;20.10;80.80;;;;;;5014017;28;20415;-65
2021/07/09 05:01:54;;;;;;;15.75;7.72;;;20.00;82.30;;;;;;5013416;28;20034;-66
2021/07/09 05:04:20;;;;;;;12.27;8.27;;;20.20;80.80;;;;;;5013627;28;20503;-66
2021/07/09 05:06:45;;;;;;;12.85;7.18;;;20.10;81.10;;;;;;5013623;28;20026;-66
2021/07/09 05:09:11;;;;;;;12.02;7.25;;;20.10;81.00;;;;;;5012688;28;20014;-66
2021/07/09 05:11:38;;;;;;;13.15;7.80;;;20.30;79.90;;;;;;5013228;28;20030;-65
2021/07/09 05:14:04;;;;;;;13.95;7.30;;;20.30;80.00;;;;;;5013395;28;20018;-66
2021/07/09 05:16:30;;;;;;;12.23;7.63;;;20.30;79.90;;;;;;5013571;28;20030;-67
2021/07/09 05:18:56;;;;;;;10.95;7.07;;;20.20;80.20;;;;;;5013376;28;20431;-67
2021/07/09 05:21:22;;;;;;;14.07;7.80;;;19.80;82.40;;;;;;5011756;28;20018;-66
2021/07/09 05:23:48;;;;;;;11.95;7.43;;;20.00;81.70;;;;;;5013059;28;20026;-67
2021/07/09 05:26:14;;;;;;;12.25;7.35;;;19.70;83.70;;;;;;5013130;28;20399;-66
2021/07/09 05:28:40;;;;;;;12.95;8.55;;;19.70;84.80;;;;;;5012938;28;20049;-67
2021/07/09 05:31:06;;;;;;;11.05;7.03;;;19.10;87.20;;;;;;5013368;28;20571;-66
2021/07/09 05:33:32;;;;;;;10.13;6.65;;;19.00;89.00;;;;;;5012496;28;20038;-66
2021/07/09 05:35:57;;;;;;;11.43;6.65;;;19.00;88.50;;;;;;5012085;28;20056;-66
2021/07/09 05:38:23;;;;;;;12.23;7.15;;;19.70;84.60;;;;;;5012749;28;20030;-66
2021/07/09 05:40:48;;;;;;;12.35;6.78;;;20.10;81.90;;;;;;5013197;28;20026;-66
2021/07/09 05:43:14;;;;;;;13.18;7.32;;;19.70;84.20;;;;;;5011842;28;20022;-66
2021/07/09 05:45:40;;;;;;;12.20;7.43;;;20.30;81.40;;;;;;5012497;28;20454;-66
2021/07/09 05:48:06;;;;;;;9.80;6.32;;;20.40;80.80;;;;;;5012582;28;20030;-65
2021/07/09 05:50:31;;;;;;;11.00;7.03;;;20.30;80.80;;;;;;5011674;28;20041;-65
2021/07/09 05:52:57;;;;;;;12.85;7.85;;;20.50;80.20;;;;;;5012051;28;20028;-66
2021/07/09 05:55:23;;;;;;;14.27;8.77;;;19.90;83.40;;;;;;5011503;28;20057;-71
2021/07/09 05:57:48;;;;;;;13.30;8.10;;;19.40;86.90;;;;;;5011150;28;20117;-73
2021/07/09 06:00:14;;;;;;;11.77;7.88;;;19.90;84.30;;;;;;5012356;28;20105;-65
2021/07/09 06:02:40;;;;;;;12.77;7.10;;;20.00;84.60;;;;;;5012464;28;20057;-65
2021/07/09 06:05:08;;;;;;;11.63;7.25;;;20.30;81.70;;;;;;5011842;28;20026;-69
2021/07/09 06:07:34;;;;;;;11.65;7.07;;;20.40;80.50;;;;;;5011477;28;20434;-66
2021/07/09 06:09:59;;;;;;;15.85;7.05;;;20.50;80.60;;;;;;5012127;28;20021;-66
2021/07/09 06:12:25;;;;;;;11.27;7.00;;;20.60;80.00;;;;;;5012447;28;20049;-64
2021/07/09 06:14:55;;;;;;;12.43;7.05;;;20.50;80.00;;;;;;5011196;28;20662;-66
2021/07/09 06:17:21;;;;;;;13.73;7.30;;;20.50;79.60;;;;;;5012394;28;20530;-66
2021/07/09 06:19:47;;;;;;;14.65;9.13;;;20.40;80.50;;;;;;5011653;28;20599;-64
2021/07/09 06:22:12;;;;;;;13.68;7.65;;;20.30;81.50;;;;;;5011425;28;20029;-66
2021/07/09 06:24:38;;;;;;;11.63;7.97;;;20.40;80.50;;;;;;5011494;28;20091;-66
2021/07/09 06:27:04;;;;;;;11.23;6.82;;;20.50;80.50;;;;;;5011639;28;20033;-65
2021/07/09 06:29:29;;;;;;;11.02;7.55;;;20.40;80.20;;;;;;5010909;28;20037;-68
2021/07/09 06:31:55;;;;;;;14.35;8.38;;;20.40;80.80;;;;;;5011656;28;20033;-69
2021/07/09 06:34:21;;;;;;;11.93;7.50;;;20.30;81.30;;;;;;5010685;28;20032;-70
2021/07/09 06:36:46;;;;;;;15.23;8.38;;;20.30;81.10;;;;;;5011595;28;20034;-66
2021/07/09 06:39:12;;;;;;;12.77;7.80;;;20.20;81.90;;;;;;5010303;28;20056;-66
2021/07/09 06:41:38;;;;;;;14.02;8.27;;;20.20;81.80;;;;;;5011548;28;20022;-67
2021/07/09 06:44:03;;;;;;;13.07;7.35;;;20.10;82.00;;;;;;5012022;28;20045;-66
2021/07/09 06:46:29;;;;;;;13.32;8.00;;;20.00;82.90;;;;;;5011458;28;20427;-66
2021/07/09 06:48:54;;;;;;;12.45;7.82;;;20.10;83.30;;;;;;5011884;28;20026;-66
2021/07/09 06:51:20;;;;;;;10.85;7.63;;;20.10;82.30;;;;;;5012048;28;20095;-66
2021/07/09 06:53:47;;;;;;;12.43;7.70;;;20.20;82.60;;;;;;5011887;28;20556;-67
2021/07/09 06:56:17;;;;;;;13.75;7.90;;;20.20;82.00;;;;;;5012183;28;20045;-66
2021/07/09 06:58:43;;;;;;;11.55;7.20;;;20.10;82.30;;;;;;5011700;28;20022;-66
2021/07/09 07:01:09;;;;;;;12.40;7.75;;;20.00;82.90;;;;;;5010927;28;20503;-66
2021/07/09 07:03:34;;;;;;;13.50;8.10;;;20.00;83.00;;;;;;5011712;28;20040;-65
2021/07/09 07:06:00;;;;;;;13.00;8.15;;;19.80;84.10;;;;;;5011940;28;20032;-66
2021/07/09 07:08:26;;;;;;;14.18;7.63;;;20.00;83.70;;;;;;5011587;28;20026;-66
2021/07/09 07:10:53;;;;;;;13.23;7.68;;;20.00;83.30;;;;;;5011903;28;20080;-65
2021/07/09 07:13:20;;;;;;;12.23;8.07;;;19.90;84.10;;;;;;5011752;28;20049;-66
2021/07/09 07:15:46;;;;;;;14.50;8.27;;;19.70;84.80;;;;;;5011834;28;20026;-65
2021/07/09 07:18:12;;;;;;;13.25;7.60;;;19.60;86.10;;;;;;5011600;28;20033;-65
2021/07/09 07:20:42;;;;;;;11.73;7.90;;;19.90;84.60;;;;;;5010441;28;20022;-66
2021/07/09 07:23:09;;;;;;;12.02;7.70;;;19.80;85.50;;;;;;5011709;28;20056;-66
2021/07/09 07:25:36;;;;;;;11.60;7.50;;;19.60;86.20;;;;;;5011775;28;20103;-66
2021/07/09 07:28:02;;;;;;;15.88;8.75;;;19.80;84.60;;;;;;5011419;28;20048;-66
2021/07/09 07:30:28;;;;;;;11.80;7.60;;;19.90;84.30;;;;;;5011711;28;20026;-65
2021/07/09 07:32:54;;;;;;;11.52;7.30;;;19.90;84.40;;;;;;5010380;28;20061;-66
2021/07/09 07:35:20;;;;;;;12.30;7.60;;;19.90;84.60;;;;;;5010135;28;20070;-67
2021/07/09 07:37:46;;;;;;;16.90;8.23;;;19.70;85.50;;;;;;5011713;28;20018;-66
2021/07/09 07:40:12;;;;;;;11.07;7.15;;;19.70;85.70;;;;;;5011590;28;20034;-65
2021/07/09 07:42:38;;;;;;;13.05;7.68;;;19.80;85.20;;;;;;5011648;28;20029;-65
2021/07/09 07:45:05;;;;;;;10.90;7.47;;;19.80;85.50;;;;;;5011542;28;20038;-66
2021/07/09 07:47:30;;;;;;;10.68;6.70;;;19.70;86.00;;;;;;5010931;28;20080;-66
2021/07/09 07:49:56;;;;;;;11.93;6.70;;;19.70;85.80;;;;;;5011553;28;20030;-66
2021/07/09 07:52:22;;;;;;;9.65;6.20;;;19.70;85.30;;;;;;5010217;28;20541;-66
2021/07/09 07:54:47;;;;;;;10.40;5.90;;;19.60;85.60;;;;;;5011342;28;20042;-66
2021/07/09 07:57:13;;;;;;;10.20;6.38;;;19.50;86.00;;;;;;5011234;28;20029;-66
2021/07/09 07:59:38;;;;;;;11.93;6.28;;;19.40;86.30;;;;;;5015102;28;20033;-66
2021/07/09 08:02:04;;;;;;;10.77;6.40;;;19.50;86.20;;;;;;5015024;28;20022;-65
2021/07/09 08:04:30;;;;;;;10.02;5.65;;;19.50;85.80;;;;;;5014903;28;20034;-65
2021/07/09 08:06:55;;;;;;;8.90;5.38;;;19.50;86.50;;;;;;5014772;28;20442;-66
2021/07/09 08:09:21;;;;;;;8.88;5.55;;;19.40;86.90;;;;;;5016172;28;20033;-66
2021/07/09 08:11:46;;;;;;;9.27;5.47;;;19.70;85.10;;;;;;5013673;28;20152;-66
2021/07/09 08:14:12;;;;;;;8.40;4.78;;;19.40;86.40;;;;;;5014735;28;20423;-65
2021/07/09 08:16:37;;;;;;;9.23;5.07;;;19.30;86.70;;;;;;5014487;28;20026;-65
2021/07/09 08:19:03;;;;;;;8.77;4.40;;;19.20;86.60;;;;;;5013320;28;20022;-65
2021/07/09 08:21:29;;;;;;;7.50;4.35;;;19.20;86.00;;;;;;5014723;28;20021;-65
2021/07/09 08:23:54;;;;;;;8.32;4.22;;;18.30;90.40;;;;;;5014625;28;20446;-65
2021/07/09 08:26:21;;;;;;;7.55;4.20;;;18.50;90.30;;;;;;5014593;28;20507;-65
2021/07/09 08:28:46;;;;;;;8.38;4.40;;;18.30;91.30;;;;;;5014327;28;20032;-65
2021/07/09 08:31:12;;;;;;;6.22;3.83;;;18.70;88.70;;;;;;5014424;28;20475;-65
2021/07/09 08:33:37;;;;;;;7.47;4.15;;;18.60;89.10;;;;;;5014420;28;20049;-66
2021/07/09 08:36:03;;;;;;;7.35;3.97;;;18.40;90.40;;;;;;5014417;28;20057;-65
2021/07/09 08:38:28;;;;;;;9.60;4.38;;;17.40;92.90;;;;;;5014036;28;20664;-65
2021/07/09 08:40:54;;;;;;;6.38;3.70;;;17.20;95.00;;;;;;5014374;28;20028;-65
2021/07/09 08:43:20;;;;;;;7.65;3.88;;;17.30;93.50;;;;;;5014219;28;20475;-65
2021/07/09 08:45:45;;;;;;;7.00;3.60;;;17.60;92.60;;;;;;5013911;28;20037;-67
2021/07/09 08:48:14;;;;;;;6.25;3.60;;;18.30;91.10;;;;;;5013942;28;20116;-65
2021/07/09 08:50:40;;;;;;;7.90;4.43;;;18.00;91.60;;;;;;5014150;28;20021;-64
2021/07/09 08:53:05;;;;;;;8.93;3.70;;;18.10;91.90;;;;;;5014074;28;20164;-67
2021/07/09 08:55:31;;;;;;;6.30;3.30;;;17.90;92.00;;;;;;5013976;28;20084;-67
2021/07/09 08:57:57;;;;;;;6.63;3.25;;;18.70;90.30;;;;;;5013722;28;20100;-66
2021/07/09 09:00:31;;;;;;;6.40;3.25;;;18.70;89.30;;;;;;5012655;28;20026;-66
2021/07/09 09:02:57;;;;;;;7.32;3.28;;;19.40;85.70;;;;;;5014007;28;20026;-66
2021/07/09 09:05:25;;;;;;;6.57;3.28;;;19.40;84.70;;;;;;5013761;28;20029;-66
2021/07/09 09:08:03;;;;;;;6.72;3.22;;;19.40;84.40;;;;;;5013553;28;20554;-67
2021/07/09 09:10:39;;;;;;;6.00;3.35;;;19.30;85.80;;;;;;5013572;28;20041;-66
2021/07/09 09:13:07;;;;;;;6.25;3.30;;;18.40;90.50;;;;;;5013992;28;20076;-66
2021/07/09 09:15:35;;;;;;;5.65;3.00;;;18.00;91.80;;;;;;5013762;28;20480;-66
2021/07/09 09:18:02;;;;;;;7.15;3.85;;;18.20;91.50;;;;;;5013362;28;20032;-66
2021/07/09 09:20:29;;;;;;;7.13;4.10;;;17.80;93.00;;;;;;5013575;28;20468;-66
2021/07/09 09:22:57;;;;;;;6.75;3.55;;;17.50;94.30;;;;;;5013472;28;20029;-66
2021/07/09 09:25:30;;;;;;;7.68;3.40;;;17.70;94.00;;;;;;5013439;28;20056;-67
2021/07/09 09:28:11;;;;;;;6.85;3.83;;;17.70;94.00;;;;;;5013239;28;20030;-65
2021/07/09 09:30:38;;;;;;;6.53;3.53;;;18.10;92.40;;;;;;5013512;28;20030;-66
2021/07/09 09:33:05;;;;;;;6.13;3.53;;;18.50;90.90;;;;;;5012001;28;20038;-66
2021/07/09 09:35:37;;;;;;;5.72;3.13;;;18.60;90.40;;;;;;5013209;28;20105;-66
2021/07/09 09:38:06;;;;;;;6.18;3.20;;;19.10;88.20;;;;;;5013122;28;20022;-65
2021/07/09 09:40:33;;;;;;;5.95;3.30;;;18.70;90.60;;;;;;5013201;28;20022;-65
2021/07/09 09:43:08;;;;;;;6.20;3.40;;;18.30;92.00;;;;;;5013274;28;20037;-67
2021/07/09 09:45:34;;;;;;;7.13;3.58;;;17.70;94.30;;;;;;5011279;28;20429;-65
2021/07/09 09:48:12;;;;;;;7.93;4.00;;;17.40;94.70;;;;;;5012825;28;20483;-66
2021/07/09 09:50:46;;;;;;;6.78;3.45;;;17.30;95.60;;;;;;5013087;28;20022;-65
2021/07/09 09:53:13;;;;;;;5.88;3.40;;;17.90;93.50;;;;;;5012997;28;20022;-66
2021/07/09 09:55:39;;;;;;;7.28;3.83;;;18.10;92.80;;;;;;5012804;28;20029;-66
2021/07/09 09:58:13;;;;;;;6.43;3.50;;;18.10;92.80;;;;;;5012710;28;20030;-65
2021/07/09 10:00:41;;;;;;;6.75;3.83;;;17.40;95.40;;;;;;5012985;28;20029;-65
2021/07/09 10:03:07;;;;;;;8.32;4.07;;;17.00;97.00;;;;;;5012792;28;20022;-64
2021/07/09 10:05:37;;;;;;;5.32;2.75;;;16.70;99.00;;;;;;5012665;28;20407;-65
2021/07/09 10:08:03;;;;;;;6.65;3.72;;;17.90;93.70;;;;;;5012472;28;20022;-65
2021/07/09 10:10:31;;;;;;;5.50;3.10;;;18.60;91.50;;;;;;5012667;28;20053;-66
2021/07/09 10:12:57;;;;;;;5.90;2.90;;;18.80;90.90;;;;;;5012755;28;20057;-65
2021/07/09 10:15:25;;;;;;;5.47;3.05;;;19.40;87.80;;;;;;5012465;28;20045;-66
2021/07/09 10:17:54;;;;;;;4.72;2.65;;;18.90;90.30;;;;;;5012336;28;20501;-65
2021/07/09 10:20:20;;;;;;;5.97;3.08;;;19.50;87.00;;;;;;5011945;28;20480;-65
2021/07/09 10:22:47;;;;;;;5.90;2.70;;;19.90;84.60;;;;;;5012441;28;20125;-66
2021/07/09 10:25:15;;;;;;;5.38;3.00;;;20.10;83.00;;;;;;5011167;28;20116;-66
2021/07/09 10:27:42;;;;;;;6.20;3.00;;;19.90;83.90;;;;;;5010899;28;20376;-64
2021/07/09 10:30:09;;;;;;;5.22;2.80;;;20.00;83.50;;;;;;5012464;28;20061;-67
2021/07/09 10:32:36;;;;;;;6.85;3.10;;;19.80;85.20;;;;;;5012320;28;20041;-66
2021/07/09 10:35:32;;;;;;;7.75;4.38;;;19.50;87.40;;;;;;5012151;28;20022;-65
2021/07/09 10:38:19;;;;;;;8.77;4.50;;;18.30;91.70;;;;;;5012052;28;20033;-67
2021/07/09 10:40:45;;;;;;;8.13;4.45;;;18.10;93.10;;;;;;5012601;28;20029;-65
2021/07/09 10:43:10;;;;;;;5.03;2.75;;;18.20;92.90;;;;;;5010837;28;20026;-67
2021/07/09 10:45:37;;;;;;;6.10;3.10;;;18.70;91.10;;;;;;5011850;28;20110;-65
2021/07/09 10:48:03;;;;;;;5.30;2.70;;;19.40;88.20;;;;;;5010590;28;20030;-65
2021/07/09 10:50:46;;;;;;;4.55;2.60;;;19.90;85.10;;;;;;5012041;28;20033;-66
2021/07/09 10:53:11;;;;;;;5.82;2.90;;;20.20;84.10;;;;;;5012047;28;20105;-65
2021/07/09 10:55:44;;;;;;;6.13;3.70;;;20.20;82.90;;;;;;5011879;28;20109;-65
2021/07/09 10:58:10;;;;;;;6.50;3.10;;;20.30;83.20;;;;;;5011776;28;20369;-65
2021/07/09 11:00:45;;;;;;;6.13;3.22;;;20.30;82.50;;;;;;5012182;28;20022;-65
2021/07/09 11:03:20;;;;;;;6.50;3.00;;;20.40;82.00;;;;;;5011794;28;20502;-65
2021/07/09 11:05:49;;;;;;;6.00;3.33;;;20.40;82.20;;;;;;5011999;28;20545;-65
2021/07/09 11:08:32;;;;;;;7.78;4.65;;;20.30;83.10;;;;;;5011579;28;20026;-64
2021/07/09 11:11:06;;;;;;;7.68;4.15;;;20.10;84.20;;;;;;5011955;28;20057;-65
2021/07/09 11:13:40;;;;;;;7.38;3.95;;;20.10;84.90;;;;;;5011750;28;20022;-65
2021/07/09 11:16:24;;;;;;;6.45;3.20;;;20.20;84.10;;;;;;5010551;28;20121;-65
2021/07/09 11:18:56;;;;;;;5.82;3.30;;;20.30;83.10;;;;;;5012008;28;20044;-65
2021/07/09 11:21:31;;;;;;;5.25;3.17;;;20.30;82.90;;;;;;5011846;28;20022;-65
2021/07/09 11:24:07;;;;;;;6.57;3.80;;;20.40;82.80;;;;;;5011845;28;20018;-65
2021/07/09 11:26:35;;;;;;;7.05;3.55;;;20.40;83.20;;;;;;5010527;28;20457;-65
2021/07/09 11:29:25;;;;;;;7.45;3.63;;;20.30;83.60;;;;;;5011494;28;20117;-65
2021/07/09 11:31:55;;;;;;;8.10;3.25;;;20.40;82.90;;;;;;5012901;28;20033;-66
2021/07/09 11:34:23;;;;;;;7.57;4.70;;;20.50;82.90;;;;;;5015448;28;20065;-64
2021/07/09 11:36:50;;;;;;;7.07;4.00;;;20.40;84.40;;;;;;5015560;28;20615;-65
2021/07/09 11:39:18;;;;;;;6.93;3.50;;;20.40;83.40;;;;;;5015543;28;20112;-66
2021/07/09 11:41:58;;;;;;;8.80;5.00;;;20.40;83.50;;;;;;5014244;28;20054;-66
2021/07/09 11:44:30;;;;;;;6.75;3.90;;;20.30;86.20;;;;;;5015440;28;20022;-66
2021/07/09 11:46:56;;;;;;;;;;;20.50;84.10;;;;;;5015471;28;20025;-65
2021/07/09 11:49:25;;;;;;;8.23;4.80;;;20.50;89.10;;;;;;5015253;28;19905;-66
2021/07/09 11:51:57;;;;;;;7.13;4.00;;;20.50;89.50;;;;;;5014053;28;20032;-65
2021/07/09 11:54:31;;;;;;;10.20;5.95;;;20.60;84.90;;;;;;5015065;28;20467;-66
2021/07/09 11:57:00;;;;;;;7.18;4.35;;;20.50;91.30;;;;;;5014948;28;20487;-65
2021/07/09 11:59:26;;;;;;;9.70;4.03;;;20.50;86.60;;;;;;5015197;28;20022;-65
2021/07/09 12:02:09;;;;;;;6.57;3.78;;;20.60;86.70;;;;;;5015144;28;20717;-67
2021/07/09 12:04:38;;;;;;;9.18;4.40;;;20.80;84.60;;;;;;5015022;28;20491;-66
2021/07/09 12:07:41;;;;;;;8.25;4.05;;;20.80;84.60;;;;;;5014755;28;20369;-65
2021/07/09 12:10:13;;;;;;;7.97;4.22;;;20.90;84.80;;;;;;5013582;28;20085;-65
2021/07/09 12:12:48;;;;;;;;;;;20.90;84.60;;;;;;5015306;28;20041;-64
2021/07/09 12:15:18;;;;;;;9.48;4.90;;;20.80;85.10;;;;;;5014730;28;19909;-64
2021/07/09 12:17:49;;;;;;;8.27;4.75;;;20.90;85.40;;;;;;5014515;28;20075;-65
2021/07/09 12:20:15;;;;;;;;;;;20.90;85.10;;;;;;5015282;28;20025;-65
2021/07/09 12:22:56;;;;;;;9.38;4.88;;;20.90;85.10;;;;;;5014707;28;20470;-66
2021/07/09 12:25:24;;;;;;;8.40;5.18;;;21.00;85.30;;;;;;5014656;28;20026;-66
2021/07/09 12:27:52;;;;;;;9.95;5.68;;;21.00;85.50;;;;;;5014521;28;20056;-65
2021/07/09 12:30:20;;;;;;;16.17;8.90;;;20.90;86.60;;;;;;5014428;28;20487;-65
2021/07/09 12:32:51;;;;;;;11.85;7.97;;;21.00;90.50;;;;;;5014345;28;20041;-66
2021/07/09 12:35:18;;;;;;;;;;;21.10;88.00;;;;;;5014713;28;20029;-66
2021/07/09 12:37:54;;;;;;;9.63;5.97;;;21.10;86.70;;;;;;5012934;28;19981;-66
2021/07/09 12:40:20;;;;;;;11.48;6.90;;;21.10;85.60;;;;;;5014436;28;20021;-67
2021/07/09 12:42:47;;;;;;;9.90;6.50;;;21.00;86.00;;;;;;5014357;28;20423;-66